This is the latest recevied weather packets stored in our database for station/object K2RMB. If no packets are shown the sender has not sent any weather packets the latest 10 day(s).
| Time | Temp. | Humidity | Pressure | Rain* | Wind** | Luminosity | Snow |
|---|---|---|---|---|---|---|---|
| 1777370813 | 5.56° C | 76% | 1022.4 hPa | 0 mm | - | 10 W/m² | - |
| 1777370509 | 5.56° C | 77% | 1022.4 hPa | 0 mm | - | 7 W/m² | - |
| 1777370205 | 5.56° C | 77% | 1022.4 hPa | 0 mm | - | 5 W/m² | - |
| 1777369902 | 5.56° C | 77% | 1022.4 hPa | 0 mm | - | 3 W/m² | - |
| 1777368992 | 6.11° C | 73% | 1022.7 hPa | 0 mm | - | 0 W/m² | - |
| 1777368687 | 6.11° C | 72% | 1022.7 hPa | 0 mm | - | 0 W/m² | - |
| 1777368381 | 6.67° C | 72% | 1022.4 hPa | 0 mm | - | 0 W/m² | - |
| 1777368079 | 6.11° C | 73% | 1022.7 hPa | 0 mm | - | 0 W/m² | - |
| 1777367776 | 6.11° C | 74% | 1022.7 hPa | 0 mm | - | 0 W/m² | - |
| 1777367472 | 6.67° C | 71% | 1022.7 hPa | 0 mm | - | 0 W/m² | - |
| 1777367167 | 6.67° C | 71% | 1022.7 hPa | 0 mm | - | 0 W/m² | - |
| 1777366863 | 6.11° C | 74% | 1022.7 hPa | 0 mm | - | 0 W/m² | - |
| 1777366557 | 6.67° C | 71% | 1022.7 hPa | 0 mm | - | 0 W/m² | - |
| 1777365650 | 6.67° C | 72% | 1022.7 hPa | 0 mm | - | 0 W/m² | - |
| 1777365349 | 6.67° C | 72% | 1023 hPa | 0 mm | - | 0 W/m² | - |
| 1777365048 | 6.67° C | 70% | 1023 hPa | 0 mm | - | 0 W/m² | - |
| 1777364744 | 6.67° C | 70% | 1023 hPa | 0 mm | - | 0 W/m² | - |
| 1777364444 | 6.67° C | 71% | 1023 hPa | 0 mm | - | 0 W/m² | - |
| 1777364140 | 7.22° C | 70% | 1023.4 hPa | 0 mm | - | 0 W/m² | - |
| 1777363837 | 7.22° C | 70% | 1023.4 hPa | 0 mm | - | 0 W/m² | - |
| 1777363533 | 7.22° C | 69% | 1023 hPa | 0 mm | - | 0 W/m² | - |
| 1777363230 | 7.22° C | 70% | 1023 hPa | 0 mm | - | 0 W/m² | - |
| 1777362927 | 7.22° C | 70% | 1023 hPa | 0 mm | - | 0 W/m² | - |
| 1777362625 | 7.22° C | 70% | 1023 hPa | 0 mm | - | 0 W/m² | - |
| 1777362323 | 7.78° C | 69% | 1023 hPa | 0 mm | - | 0 W/m² | - |
* Rain latest hour (hover to see other rain measurements)
** Current wind speed in m/s (hover to see current wind gust speed)